sensor_id;sensor_type;location;lat;lon;timestamp;temperature;humidity
52725;DHT22;38621;52.830;6.914;2023-04-01T00:00:06;9.90;99.90
52725;DHT22;38621;52.830;6.914;2023-04-01T00:02:32;9.90;99.90
52725;DHT22;38621;52.830;6.914;2023-04-01T00:04:58;9.90;99.90
52725;DHT22;38621;52.830;6.914;2023-04-01T00:07:23;9.90;99.90
52725;DHT22;38621;52.830;6.914;2023-04-01T00:09:51;9.90;99.90
52725;DHT22;38621;52.830;6.914;2023-04-01T00:12:16;9.90;99.90
52725;DHT22;38621;52.830;6.914;2023-04-01T00:14:42;10.00;99.90
52725;DHT22;38621;52.830;6.914;2023-04-01T00:17:08;9.90;99.90
52725;DHT22;38621;52.830;6.914;2023-04-01T00:19:34;9.90;99.90
52725;DHT22;38621;52.830;6.914;2023-04-01T00:21:59;9.90;99.90
52725;DHT22;38621;52.830;6.914;2023-04-01T00:24:25;9.90;99.90
52725;DHT22;38621;52.830;6.914;2023-04-01T00:26:51;9.90;99.90
52725;DHT22;38621;52.830;6.914;2023-04-01T00:29:16;10.00;99.90
52725;DHT22;38621;52.830;6.914;2023-04-01T00:31:42;10.00;99.90
52725;DHT22;38621;52.830;6.914;2023-04-01T00:34:07;10.00;99.90
52725;DHT22;38621;52.830;6.914;2023-04-01T00:36:33;9.90;99.90
52725;DHT22;38621;52.830;6.914;2023-04-01T00:38:59;9.90;99.90
52725;DHT22;38621;52.830;6.914;2023-04-01T00:41:25;9.90;99.90
52725;DHT22;38621;52.830;6.914;2023-04-01T00:43:52;9.90;99.90
52725;DHT22;38621;52.830;6.914;2023-04-01T00:46:18;9.90;99.90
52725;DHT22;38621;52.830;6.914;2023-04-01T00:48:53;9.90;99.90
52725;DHT22;38621;52.830;6.914;2023-04-01T00:51:25;9.90;99.90
52725;DHT22;38621;52.830;6.914;2023-04-01T00:53:54;9.90;99.90
52725;DHT22;38621;52.830;6.914;2023-04-01T00:56:51;9.80;99.90
52725;DHT22;38621;52.830;6.914;2023-04-01T00:59:25;9.90;99.90
52725;DHT22;38621;52.830;6.914;2023-04-01T01:01:52;9.90;99.90
52725;DHT22;38621;52.830;6.914;2023-04-01T01:04:36;9.80;99.90
52725;DHT22;38621;52.830;6.914;2023-04-01T01:10:24;9.80;99.90
52725;DHT22;38621;52.830;6.914;2023-04-01T01:13:32;9.80;99.90
52725;DHT22;38621;52.830;6.914;2023-04-01T01:16:36;9.80;99.90
52725;DHT22;38621;52.830;6.914;2023-04-01T01:19:33;9.80;99.90
52725;DHT22;38621;52.830;6.914;2023-04-01T01:23:16;9.80;99.90
52725;DHT22;38621;52.830;6.914;2023-04-01T01:28:31;9.80;99.90
52725;DHT22;38621;52.830;6.914;2023-04-01T01:34:16;9.80;99.90
52725;DHT22;38621;52.830;6.914;2023-04-01T01:36:45;9.80;99.90
52725;DHT22;38621;52.830;6.914;2023-04-01T01:39:14;9.80;99.90
52725;DHT22;38621;52.830;6.914;2023-04-01T01:41:42;9.80;99.90
52725;DHT22;38621;52.830;6.914;2023-04-01T01:44:12;9.80;99.90
52725;DHT22;38621;52.830;6.914;2023-04-01T01:46:39;9.80;99.90
52725;DHT22;38621;52.830;6.914;2023-04-01T01:49:07;9.80;99.90
52725;DHT22;38621;52.830;6.914;2023-04-01T01:51:35;9.80;99.90
52725;DHT22;38621;52.830;6.914;2023-04-01T01:54:01;9.80;99.90
52725;DHT22;38621;52.830;6.914;2023-04-01T01:56:29;9.80;99.90
52725;DHT22;38621;52.830;6.914;2023-04-01T01:59:00;9.80;99.90
52725;DHT22;38621;52.830;6.914;2023-04-01T02:01:30;9.80;99.90
52725;DHT22;38621;52.830;6.914;2023-04-01T02:03:57;9.80;99.90
52725;DHT22;38621;52.830;6.914;2023-04-01T02:06:26;9.80;99.90
52725;DHT22;38621;52.830;6.914;2023-04-01T02:09:04;9.80;99.90
52725;DHT22;38621;52.830;6.914;2023-04-01T02:11:41;9.80;99.90
52725;DHT22;38621;52.830;6.914;2023-04-01T02:14:18;9.80;99.90
52725;DHT22;38621;52.830;6.914;2023-04-01T02:17:10;9.80;99.90
52725;DHT22;38621;52.830;6.914;2023-04-01T02:19:51;9.80;99.90
52725;DHT22;38621;52.830;6.914;2023-04-01T02:22:25;9.80;99.90
52725;DHT22;38621;52.830;6.914;2023-04-01T02:24:54;9.80;99.90
52725;DHT22;38621;52.830;6.914;2023-04-01T02:27:23;9.80;99.90
52725;DHT22;38621;52.830;6.914;2023-04-01T02:29:50;9.80;99.90
52725;DHT22;38621;52.830;6.914;2023-04-01T02:32:18;9.80;99.90
52725;DHT22;38621;52.830;6.914;2023-04-01T02:34:45;9.70;99.90
52725;DHT22;38621;52.830;6.914;2023-04-01T02:37:12;9.70;99.90
52725;DHT22;38621;52.830;6.914;2023-04-01T02:39:38;9.70;99.90
52725;DHT22;38621;52.830;6.914;2023-04-01T02:42:04;9.70;99.90
52725;DHT22;38621;52.830;6.914;2023-04-01T02:44:30;9.70;99.90
52725;DHT22;38621;52.830;6.914;2023-04-01T02:46:55;9.80;99.90
52725;DHT22;38621;52.830;6.914;2023-04-01T02:49:21;9.70;99.90
52725;DHT22;38621;52.830;6.914;2023-04-01T02:51:47;9.80;99.90
52725;DHT22;38621;52.830;6.914;2023-04-01T02:54:13;9.80;99.90
52725;DHT22;38621;52.830;6.914;2023-04-01T02:56:38;9.80;99.90
52725;DHT22;38621;52.830;6.914;2023-04-01T02:59:04;9.80;99.90
52725;DHT22;38621;52.830;6.914;2023-04-01T03:01:30;9.80;99.90
52725;DHT22;38621;52.830;6.914;2023-04-01T03:03:56;9.80;99.90
52725;DHT22;38621;52.830;6.914;2023-04-01T03:06:21;9.80;99.90
52725;DHT22;38621;52.830;6.914;2023-04-01T03:08:47;9.90;99.90
52725;DHT22;38621;52.830;6.914;2023-04-01T03:11:13;9.80;99.90
52725;DHT22;38621;52.830;6.914;2023-04-01T03:13:39;9.80;99.90
52725;DHT22;38621;52.830;6.914;2023-04-01T03:16:05;9.80;99.90
52725;DHT22;38621;52.830;6.914;2023-04-01T03:18:31;9.80;99.90
52725;DHT22;38621;52.830;6.914;2023-04-01T03:20:56;9.80;99.90
52725;DHT22;38621;52.830;6.914;2023-04-01T03:23:22;9.80;99.90
52725;DHT22;38621;52.830;6.914;2023-04-01T03:25:50;9.80;99.90
52725;DHT22;38621;52.830;6.914;2023-04-01T03:28:15;9.80;99.90
52725;DHT22;38621;52.830;6.914;2023-04-01T03:30:41;9.80;99.90
52725;DHT22;38621;52.830;6.914;2023-04-01T03:33:07;9.80;99.90
52725;DHT22;38621;52.830;6.914;2023-04-01T03:35:33;9.80;99.90
52725;DHT22;38621;52.830;6.914;2023-04-01T03:38:01;9.80;99.90
52725;DHT22;38621;52.830;6.914;2023-04-01T03:40:26;9.70;99.90
52725;DHT22;38621;52.830;6.914;2023-04-01T03:42:52;9.80;99.90
52725;DHT22;38621;52.830;6.914;2023-04-01T03:45:18;9.70;99.90
52725;DHT22;38621;52.830;6.914;2023-04-01T03:47:44;9.70;99.90
52725;DHT22;38621;52.830;6.914;2023-04-01T03:50:10;9.80;99.90
52725;DHT22;38621;52.830;6.914;2023-04-01T03:52:36;9.80;99.90
52725;DHT22;38621;52.830;6.914;2023-04-01T03:55:02;9.70;99.90
52725;DHT22;38621;52.830;6.914;2023-04-01T03:57:28;9.70;99.90
52725;DHT22;38621;52.830;6.914;2023-04-01T03:59:55;9.70;99.90
52725;DHT22;38621;52.830;6.914;2023-04-01T04:02:21;9.70;99.90
52725;DHT22;38621;52.830;6.914;2023-04-01T04:04:47;9.70;99.90
52725;DHT22;38621;52.830;6.914;2023-04-01T04:07:13;9.70;99.90
52725;DHT22;38621;52.830;6.914;2023-04-01T04:09:38;9.70;99.90
52725;DHT22;38621;52.830;6.914;2023-04-01T04:12:04;9.70;99.90
52725;DHT22;38621;52.830;6.914;2023-04-01T04:14:31;9.70;99.90
52725;DHT22;38621;52.830;6.914;2023-04-01T04:16:57;9.70;99.90
52725;DHT22;38621;52.830;6.914;2023-04-01T04:19:23;9.70;99.90
52725;DHT22;38621;52.830;6.914;2023-04-01T04:21:49;9.70;99.90
52725;DHT22;38621;52.830;6.914;2023-04-01T04:24:15;9.70;99.90
52725;DHT22;38621;52.830;6.914;2023-04-01T04:26:40;9.70;99.90
52725;DHT22;38621;52.830;6.914;2023-04-01T04:29:06;9.70;99.90
52725;DHT22;38621;52.830;6.914;2023-04-01T04:31:32;9.70;99.90
52725;DHT22;38621;52.830;6.914;2023-04-01T04:33:59;9.70;99.90
52725;DHT22;38621;52.830;6.914;2023-04-01T04:36:26;9.70;99.90
52725;DHT22;38621;52.830;6.914;2023-04-01T04:38:52;9.70;99.90
52725;DHT22;38621;52.830;6.914;2023-04-01T04:41:19;9.70;99.90
52725;DHT22;38621;52.830;6.914;2023-04-01T04:43:54;9.70;99.90
52725;DHT22;38621;52.830;6.914;2023-04-01T04:46:20;9.70;99.90
52725;DHT22;38621;52.830;6.914;2023-04-01T04:48:46;9.70;99.90
52725;DHT22;38621;52.830;6.914;2023-04-01T04:51:17;9.70;99.90
52725;DHT22;38621;52.830;6.914;2023-04-01T04:53:43;9.80;99.90
52725;DHT22;38621;52.830;6.914;2023-04-01T04:56:09;9.80;99.90
52725;DHT22;38621;52.830;6.914;2023-04-01T04:58:35;9.70;99.90
52725;DHT22;38621;52.830;6.914;2023-04-01T05:01:13;9.70;99.90
52725;DHT22;38621;52.830;6.914;2023-04-01T05:03:39;9.80;99.90
52725;DHT22;38621;52.830;6.914;2023-04-01T05:06:05;9.70;99.90
52725;DHT22;38621;52.830;6.914;2023-04-01T05:08:32;9.70;99.90
52725;DHT22;38621;52.830;6.914;2023-04-01T05:10:58;9.70;99.90
52725;DHT22;38621;52.830;6.914;2023-04-01T05:13:24;9.70;99.90
52725;DHT22;38621;52.830;6.914;2023-04-01T05:15:50;9.70;99.90
52725;DHT22;38621;52.830;6.914;2023-04-01T05:18:16;9.70;99.90
52725;DHT22;38621;52.830;6.914;2023-04-01T05:20:48;9.80;99.90
52725;DHT22;38621;52.830;6.914;2023-04-01T05:23:15;9.80;99.90
52725;DHT22;38621;52.830;6.914;2023-04-01T05:25:41;9.80;99.90
52725;DHT22;38621;52.830;6.914;2023-04-01T05:28:06;9.80;99.90
52725;DHT22;38621;52.830;6.914;2023-04-01T05:30:32;9.80;99.90
52725;DHT22;38621;52.830;6.914;2023-04-01T05:32:58;9.80;99.90
52725;DHT22;38621;52.830;6.914;2023-04-01T05:35:24;9.80;99.90
52725;DHT22;38621;52.830;6.914;2023-04-01T05:37:50;9.80;99.90
52725;DHT22;38621;52.830;6.914;2023-04-01T05:40:16;9.80;99.90
52725;DHT22;38621;52.830;6.914;2023-04-01T05:42:42;9.90;99.90
52725;DHT22;38621;52.830;6.914;2023-04-01T05:45:08;9.90;99.90
52725;DHT22;38621;52.830;6.914;2023-04-01T05:47:34;9.90;99.90
52725;DHT22;38621;52.830;6.914;2023-04-01T05:50:00;9.90;99.90
52725;DHT22;38621;52.830;6.914;2023-04-01T05:52:25;9.90;99.90
52725;DHT22;38621;52.830;6.914;2023-04-01T05:54:51;9.90;99.90
52725;DHT22;38621;52.830;6.914;2023-04-01T05:57:17;9.90;99.90
52725;DHT22;38621;52.830;6.914;2023-04-01T05:59:43;9.90;99.90
52725;DHT22;38621;52.830;6.914;2023-04-01T06:02:09;9.90;99.90
52725;DHT22;38621;52.830;6.914;2023-04-01T06:04:38;9.90;99.90
52725;DHT22;38621;52.830;6.914;2023-04-01T06:07:17;9.90;99.90
52725;DHT22;38621;52.830;6.914;2023-04-01T06:09:44;10.00;99.90
52725;DHT22;38621;52.830;6.914;2023-04-01T06:12:16;10.00;99.90
52725;DHT22;38621;52.830;6.914;2023-04-01T06:18:01;10.00;99.90
52725;DHT22;38621;52.830;6.914;2023-04-01T06:26:24;10.00;99.90
52725;DHT22;38621;52.830;6.914;2023-04-01T06:29:15;10.00;99.90
52725;DHT22;38621;52.830;6.914;2023-04-01T06:32:08;10.00;99.90
52725;DHT22;38621;52.830;6.914;2023-04-01T06:35:31;10.10;99.90
52725;DHT22;38621;52.830;6.914;2023-04-01T06:45:56;10.10;99.90
52725;DHT22;38621;52.830;6.914;2023-04-01T06:54:36;10.10;99.90
52725;DHT22;38621;52.830;6.914;2023-04-01T06:57:24;10.10;99.90
52725;DHT22;38621;52.830;6.914;2023-04-01T06:59:54;10.10;99.90
52725;DHT22;38621;52.830;6.914;2023-04-01T07:04:53;10.20;99.90
52725;DHT22;38621;52.830;6.914;2023-04-01T07:07:41;10.20;99.90
52725;DHT22;38621;52.830;6.914;2023-04-01T07:10:23;10.30;99.90
52725;DHT22;38621;52.830;6.914;2023-04-01T07:12:54;10.30;99.90
52725;DHT22;38621;52.830;6.914;2023-04-01T07:15:26;10.30;99.90
52725;DHT22;38621;52.830;6.914;2023-04-01T07:17:59;10.30;99.90
52725;DHT22;38621;52.830;6.914;2023-04-01T07:20:30;10.30;99.90
52725;DHT22;38621;52.830;6.914;2023-04-01T07:22:59;10.30;99.90
52725;DHT22;38621;52.830;6.914;2023-04-01T07:25:30;10.30;99.90
52725;DHT22;38621;52.830;6.914;2023-04-01T07:28:14;10.30;99.90
52725;DHT22;38621;52.830;6.914;2023-04-01T07:41:45;10.30;99.90
52725;DHT22;38621;52.830;6.914;2023-04-01T07:44:24;10.20;99.90
52725;DHT22;38621;52.830;6.914;2023-04-01T07:52:48;10.30;99.90
52725;DHT22;38621;52.830;6.914;2023-04-01T07:55:37;10.30;99.90
52725;DHT22;38621;52.830;6.914;2023-04-01T07:58:17;10.30;99.90
52725;DHT22;38621;52.830;6.914;2023-04-01T08:04:06;10.40;99.90
52725;DHT22;38621;52.830;6.914;2023-04-01T08:17:34;10.50;99.90
52725;DHT22;38621;52.830;6.914;2023-04-01T08:20:10;10.60;99.90
52725;DHT22;38621;52.830;6.914;2023-04-01T08:22:42;10.70;99.90
52725;DHT22;38621;52.830;6.914;2023-04-01T08:25:17;10.80;99.90
52725;DHT22;38621;52.830;6.914;2023-04-01T08:27:55;10.90;99.90
52725;DHT22;38621;52.830;6.914;2023-04-01T08:30:26;11.00;99.90
52725;DHT22;38621;52.830;6.914;2023-04-01T08:36:15;11.00;99.90
52725;DHT22;38621;52.830;6.914;2023-04-01T08:38:54;11.10;99.90
52725;DHT22;38621;52.830;6.914;2023-04-01T08:50:36;11.50;99.90
52725;DHT22;38621;52.830;6.914;2023-04-01T09:13:27;12.00;99.90
52725;DHT22;38621;52.830;6.914;2023-04-01T09:40:57;12.70;99.90
52725;DHT22;38621;52.830;6.914;2023-04-01T09:46:44;13.00;99.90
52725;DHT22;38621;52.830;6.914;2023-04-01T10:03:23;13.40;99.90
52725;DHT22;38621;52.830;6.914;2023-04-01T10:14:56;13.10;99.90
52725;DHT22;38621;52.830;6.914;2023-04-01T10:22:46;13.00;99.90
52725;DHT22;38621;52.830;6.914;2023-04-01T10:50:59;12.50;99.90
52725;DHT22;38621;52.830;6.914;2023-04-01T10:53:42;12.50;99.90
52725;DHT22;38621;52.830;6.914;2023-04-01T11:01:49;12.50;99.90
52725;DHT22;38621;52.830;6.914;2023-04-01T11:42:49;11.60;99.90
52725;DHT22;38621;52.830;6.914;2023-04-01T11:45:39;11.60;99.90
52725;DHT22;38621;52.830;6.914;2023-04-01T11:53:52;11.40;99.90
52725;DHT22;38621;52.830;6.914;2023-04-01T12:05:28;11.20;99.90
52725;DHT22;38621;52.830;6.914;2023-04-01T12:11:12;11.20;99.90
52725;DHT22;38621;52.830;6.914;2023-04-01T12:25:27;11.40;99.90
52725;DHT22;38621;52.830;6.914;2023-04-01T12:33:45;11.50;99.90
52725;DHT22;38621;52.830;6.914;2023-04-01T12:36:16;11.60;99.90
52725;DHT22;38621;52.830;6.914;2023-04-01T13:05:05;10.90;99.90
52725;DHT22;38621;52.830;6.914;2023-04-01T13:11:01;10.80;99.90
52725;DHT22;38621;52.830;6.914;2023-04-01T13:16:31;10.70;99.90
52725;DHT22;38621;52.830;6.914;2023-04-01T13:22:03;10.80;99.90
52725;DHT22;38621;52.830;6.914;2023-04-01T13:24:50;10.80;99.90
52725;DHT22;38621;52.830;6.914;2023-04-01T13:27:23;10.80;99.90
52725;DHT22;38621;52.830;6.914;2023-04-01T13:35:17;10.50;99.90
52725;DHT22;38621;52.830;6.914;2023-04-01T13:40:33;10.30;99.90
52725;DHT22;38621;52.830;6.914;2023-04-01T13:48:49;10.20;99.90
52725;DHT22;38621;52.830;6.914;2023-04-01T14:00:39;10.20;99.90
52725;DHT22;38621;52.830;6.914;2023-04-01T14:09:03;10.20;99.90
52725;DHT22;38621;52.830;6.914;2023-04-01T14:17:58;10.40;99.90
52725;DHT22;38621;52.830;6.914;2023-04-01T14:20:39;10.40;99.90
52725;DHT22;38621;52.830;6.914;2023-04-01T14:26:15;10.40;99.90
52725;DHT22;38621;52.830;6.914;2023-04-01T14:31:21;10.30;99.90
52725;DHT22;38621;52.830;6.914;2023-04-01T14:39:59;10.10;99.90
52725;DHT22;38621;52.830;6.914;2023-04-01T14:47:46;9.90;99.90
52725;DHT22;38621;52.830;6.914;2023-04-01T14:50:16;9.90;99.90
52725;DHT22;38621;52.830;6.914;2023-04-01T14:55:36;10.00;99.90
52725;DHT22;38621;52.830;6.914;2023-04-01T14:58:12;10.10;99.90
52725;DHT22;38621;52.830;6.914;2023-04-01T15:05:56;10.20;99.90
52725;DHT22;38621;52.830;6.914;2023-04-01T15:09:01;10.20;99.90
52725;DHT22;38621;52.830;6.914;2023-04-01T15:11:38;10.10;99.90
52725;DHT22;38621;52.830;6.914;2023-04-01T15:15:16;10.10;99.90
52725;DHT22;38621;52.830;6.914;2023-04-01T15:20:10;10.00;99.90
52725;DHT22;38621;52.830;6.914;2023-04-01T15:23:17;10.00;99.90
52725;DHT22;38621;52.830;6.914;2023-04-01T15:26:12;9.90;99.90
52725;DHT22;38621;52.830;6.914;2023-04-01T15:31:32;9.80;99.90
52725;DHT22;38621;52.830;6.914;2023-04-01T15:36:43;9.70;99.90
52725;DHT22;38621;52.830;6.914;2023-04-01T15:39:44;9.70;99.90
52725;DHT22;38621;52.830;6.914;2023-04-01T15:42:43;9.70;99.90
52725;DHT22;38621;52.830;6.914;2023-04-01T15:48:27;9.60;99.90
52725;DHT22;38621;52.830;6.914;2023-04-01T15:59:01;9.40;99.90
52725;DHT22;38621;52.830;6.914;2023-04-01T16:01:52;9.30;99.90
52725;DHT22;38621;52.830;6.914;2023-04-01T16:21:02;9.20;99.90
52725;DHT22;38621;52.830;6.914;2023-04-01T16:23:37;9.10;99.90
52725;DHT22;38621;52.830;6.914;2023-04-01T16:28:39;9.10;99.90
52725;DHT22;38621;52.830;6.914;2023-04-01T16:37:33;8.90;99.90
52725;DHT22;38621;52.830;6.914;2023-04-01T16:43:12;8.80;99.90
52725;DHT22;38621;52.830;6.914;2023-04-01T16:45:47;8.70;99.90
52725;DHT22;38621;52.830;6.914;2023-04-01T16:48:34;8.70;99.90
52725;DHT22;38621;52.830;6.914;2023-04-01T16:51:04;8.60;99.90
52725;DHT22;38621;52.830;6.914;2023-04-01T16:56:20;8.50;99.90
52725;DHT22;38621;52.830;6.914;2023-04-01T17:04:45;8.40;99.90
52725;DHT22;38621;52.830;6.914;2023-04-01T17:12:32;8.40;99.90
52725;DHT22;38621;52.830;6.914;2023-04-01T17:23:50;8.30;99.90
52725;DHT22;38621;52.830;6.914;2023-04-01T17:26:25;8.30;99.90
52725;DHT22;38621;52.830;6.914;2023-04-01T17:31:54;8.30;99.90
52725;DHT22;38621;52.830;6.914;2023-04-01T17:37:23;8.20;99.90
52725;DHT22;38621;52.830;6.914;2023-04-01T17:56:04;7.90;99.90
52725;DHT22;38621;52.830;6.914;2023-04-01T18:04:17;7.70;99.90
52725;DHT22;38621;52.830;6.914;2023-04-01T18:07:04;7.70;99.90
52725;DHT22;38621;52.830;6.914;2023-04-01T18:15:21;7.70;99.90
52725;DHT22;38621;52.830;6.914;2023-04-01T18:18:05;7.70;99.90
52725;DHT22;38621;52.830;6.914;2023-04-01T18:23:29;7.60;99.90
52725;DHT22;38621;52.830;6.914;2023-04-01T18:26:05;7.60;99.90
52725;DHT22;38621;52.830;6.914;2023-04-01T18:31:06;7.50;99.90
52725;DHT22;38621;52.830;6.914;2023-04-01T18:39:00;7.50;99.90
52725;DHT22;38621;52.830;6.914;2023-04-01T18:41:32;7.40;99.90
52725;DHT22;38621;52.830;6.914;2023-04-01T18:52:47;7.30;99.90
52725;DHT22;38621;52.830;6.914;2023-04-01T18:55:22;7.30;99.90
52725;DHT22;38621;52.830;6.914;2023-04-01T18:57:49;7.20;99.90
52725;DHT22;38621;52.830;6.914;2023-04-01T19:00:26;7.20;99.90
52725;DHT22;38621;52.830;6.914;2023-04-01T19:03:02;7.10;99.90
52725;DHT22;38621;52.830;6.914;2023-04-01T19:05:33;7.10;99.90
52725;DHT22;38621;52.830;6.914;2023-04-01T19:08:28;7.10;99.90
52725;DHT22;38621;52.830;6.914;2023-04-01T19:16:42;7.00;99.90
52725;DHT22;38621;52.830;6.914;2023-04-01T19:45:07;6.90;99.90
52725;DHT22;38621;52.830;6.914;2023-04-01T19:50:43;6.90;99.90
52725;DHT22;38621;52.830;6.914;2023-04-01T19:53:41;6.90;99.90
52725;DHT22;38621;52.830;6.914;2023-04-01T19:56:20;6.90;99.90
52725;DHT22;38621;52.830;6.914;2023-04-01T20:01:28;6.90;99.90
52725;DHT22;38621;52.830;6.914;2023-04-01T20:04:04;6.80;99.90
52725;DHT22;38621;52.830;6.914;2023-04-01T20:09:48;6.90;99.90
52725;DHT22;38621;52.830;6.914;2023-04-01T20:14:54;6.80;99.90
52725;DHT22;38621;52.830;6.914;2023-04-01T20:25:24;6.80;99.90
52725;DHT22;38621;52.830;6.914;2023-04-01T20:27:51;6.80;99.90
52725;DHT22;38621;52.830;6.914;2023-04-01T20:36:15;6.70;99.90
52725;DHT22;38621;52.830;6.914;2023-04-01T20:47:54;6.60;99.90
52725;DHT22;38621;52.830;6.914;2023-04-01T20:50:45;6.60;99.90
52725;DHT22;38621;52.830;6.914;2023-04-01T20:53:20;6.60;99.90
52725;DHT22;38621;52.830;6.914;2023-04-01T20:56:06;6.60;99.90
52725;DHT22;38621;52.830;6.914;2023-04-01T20:59:02;6.50;99.90
52725;DHT22;38621;52.830;6.914;2023-04-01T21:01:44;6.50;99.90
52725;DHT22;38621;52.830;6.914;2023-04-01T21:10:32;6.40;99.90
52725;DHT22;38621;52.830;6.914;2023-04-01T21:16:32;6.40;99.90
52725;DHT22;38621;52.830;6.914;2023-04-01T21:19:25;6.40;99.90
52725;DHT22;38621;52.830;6.914;2023-04-01T21:28:35;6.30;99.90
52725;DHT22;38621;52.830;6.914;2023-04-01T21:38:34;6.30;99.90
52725;DHT22;38621;52.830;6.914;2023-04-01T21:41:05;6.30;99.90
52725;DHT22;38621;52.830;6.914;2023-04-01T21:49:19;6.20;99.90
52725;DHT22;38621;52.830;6.914;2023-04-01T22:00:24;6.20;99.90
52725;DHT22;38621;52.830;6.914;2023-04-01T22:05:39;6.10;99.90
52725;DHT22;38621;52.830;6.914;2023-04-01T22:08:50;6.20;99.90
52725;DHT22;38621;52.830;6.914;2023-04-01T22:11:34;6.10;99.90
52725;DHT22;38621;52.830;6.914;2023-04-01T22:17:02;6.00;99.90
52725;DHT22;38621;52.830;6.914;2023-04-01T22:22:22;6.00;99.90
52725;DHT22;38621;52.830;6.914;2023-04-01T22:25:14;5.90;99.90
52725;DHT22;38621;52.830;6.914;2023-04-01T22:27:52;6.00;99.90
52725;DHT22;38621;52.830;6.914;2023-04-01T22:30:31;5.90;99.90
52725;DHT22;38621;52.830;6.914;2023-04-01T22:33:09;5.90;99.90
52725;DHT22;38621;52.830;6.914;2023-04-01T22:35:55;5.90;99.90
52725;DHT22;38621;52.830;6.914;2023-04-01T22:43:47;5.90;99.90
52725;DHT22;38621;52.830;6.914;2023-04-01T22:49:12;5.90;99.90
52725;DHT22;38621;52.830;6.914;2023-04-01T22:52:09;5.80;99.90
52725;DHT22;38621;52.830;6.914;2023-04-01T22:54:48;5.80;99.90
52725;DHT22;38621;52.830;6.914;2023-04-01T23:05:37;5.70;99.90
52725;DHT22;38621;52.830;6.914;2023-04-01T23:10:46;5.60;99.90
52725;DHT22;38621;52.830;6.914;2023-04-01T23:13:36;5.60;99.90
52725;DHT22;38621;52.830;6.914;2023-04-01T23:16:04;5.50;99.90
52725;DHT22;38621;52.830;6.914;2023-04-01T23:18:36;5.50;99.90
52725;DHT22;38621;52.830;6.914;2023-04-01T23:26:31;5.50;99.90
52725;DHT22;38621;52.830;6.914;2023-04-01T23:28:58;5.50;99.90
52725;DHT22;38621;52.830;6.914;2023-04-01T23:36:50;5.40;99.90
52725;DHT22;38621;52.830;6.914;2023-04-01T23:41:48;5.30;99.90
52725;DHT22;38621;52.830;6.914;2023-04-01T23:44:15;5.30;99.90
52725;DHT22;38621;52.830;6.914;2023-04-01T23:46:44;5.30;99.90
52725;DHT22;38621;52.830;6.914;2023-04-01T23:49:17;5.20;99.90
52725;DHT22;38621;52.830;6.914;2023-04-01T23:51:59;5.20;99.90
52725;DHT22;38621;52.830;6.914;2023-04-01T23:54:43;5.30;99.90
52725;DHT22;38621;52.830;6.914;2023-04-01T23:57:16;5.10;99.90
52725;DHT22;38621;52.830;6.914;2023-04-01T23:59:43;5.10;99.90
